createdAt,value
2022-09-04T00:00:19.159Z,12.6
2022-09-04T00:05:25.332Z,12.6
2022-09-04T00:10:31.421Z,12.5
2022-09-04T00:15:20.422Z,12.5
2022-09-04T00:20:26.496Z,12.5
2022-09-04T00:25:32.650Z,12.4
2022-09-04T00:30:21.355Z,12.4
2022-09-04T00:35:27.909Z,12.5
2022-09-04T00:40:16.542Z,12.4
2022-09-04T00:45:22.591Z,12.4
2022-09-04T00:50:28.586Z,12.6
2022-09-04T00:55:17.654Z,12.4
2022-09-04T01:00:23.811Z,12.4
2022-09-04T01:05:29.118Z,12.4
2022-09-04T01:10:18.209Z,12.5
2022-09-04T01:15:24.232Z,12.6
2022-09-04T01:20:30.320Z,12.6
2022-09-04T01:25:19.355Z,12.5
2022-09-04T01:30:25.274Z,12.6
2022-09-04T01:35:31.180Z,12.7
2022-09-04T01:40:20.231Z,12.7
2022-09-04T01:45:26.272Z,12.5
2022-09-04T01:50:32.356Z,12.6
2022-09-04T01:55:21.417Z,12.6
2022-09-04T02:00:27.440Z,12.6
2022-09-04T02:05:15.562Z,12.6
2022-09-04T02:10:21.647Z,12.7
2022-09-04T02:15:27.672Z,12.8
2022-09-04T02:20:16.753Z,12.7
2022-09-04T02:25:22.827Z,12.7
2022-09-04T02:30:28.691Z,12.7
2022-09-04T02:35:17.580Z,12.8
2022-09-04T02:40:23.740Z,12.9
2022-09-04T02:45:29.771Z,13.0
2022-09-04T02:50:18.802Z,13.0
2022-09-04T02:55:24.832Z,13.0
2022-09-04T03:00:31.033Z,13.1
2022-09-04T03:05:19.983Z,13.0
2022-09-04T03:10:26.066Z,13.0
2022-09-04T03:15:32.169Z,13.1
2022-09-04T03:20:21.210Z,13.0
2022-09-04T03:25:27.261Z,13.0
2022-09-04T03:30:16.174Z,13.3
2022-09-04T03:35:22.572Z,13.2
2022-09-04T03:40:28.347Z,13.2
2022-09-04T03:45:17.370Z,13.3
2022-09-04T03:50:23.530Z,13.4
2022-09-04T03:55:29.512Z,13.3
2022-09-04T04:00:18.520Z,13.4
2022-09-04T04:05:23.713Z,13.5
2022-09-04T04:10:29.766Z,13.6
2022-09-04T04:15:18.805Z,13.6
2022-09-04T04:20:24.882Z,13.5
2022-09-04T04:25:30.928Z,13.5
2022-09-04T04:30:19.701Z,13.6
2022-09-04T04:35:25.957Z,13.7
2022-09-04T04:40:31.904Z,13.6
2022-09-04T04:45:20.876Z,13.6
2022-09-04T04:50:26.957Z,13.7
2022-09-04T04:55:16.032Z,13.7
2022-09-04T05:00:27.338Z,13.7
2022-09-04T05:05:28.193Z,13.7
2022-09-04T05:10:17.264Z,13.7
2022-09-04T05:15:23.305Z,13.8
2022-09-04T05:20:29.406Z,13.8
2022-09-04T05:25:18.514Z,13.8
2022-09-04T05:30:24.275Z,13.7
2022-09-04T05:35:35.191Z,13.7
2022-09-04T05:40:19.412Z,13.7
2022-09-04T05:45:25.461Z,13.7
2022-09-04T05:50:31.579Z,13.8
2022-09-04T05:55:20.605Z,13.8
2022-09-04T06:00:26.623Z,13.9
2022-09-04T06:05:31.840Z,13.9
2022-09-04T06:10:20.775Z,14.0
2022-09-04T06:15:26.872Z,14.0
2022-09-04T06:20:15.967Z,14.0
2022-09-04T06:25:22.022Z,14.1
2022-09-04T06:30:28.142Z,14.1
2022-09-04T06:35:17.172Z,14.1
2022-09-04T06:40:23.326Z,14.0
2022-09-04T06:45:29.255Z,14.0
2022-09-04T06:50:18.309Z,14.1
2022-09-04T06:55:24.376Z,14.0
2022-09-04T07:00:30.508Z,13.9
2022-09-04T07:05:18.568Z,14.0
2022-09-04T07:10:24.621Z,13.9
2022-09-04T07:15:30.749Z,14.0
2022-09-04T07:20:19.706Z,14.0
2022-09-04T07:25:25.799Z,14.0
2022-09-04T07:30:31.618Z,14.0
2022-09-04T07:35:20.624Z,14.2
2022-09-04T07:40:27.839Z,14.1
2022-09-04T07:45:15.717Z,14.2
2022-09-04T07:50:21.773Z,14.2
2022-09-04T07:55:27.916Z,14.3
2022-09-04T08:00:16.924Z,14.3
2022-09-04T08:05:23.152Z,14.4
2022-09-04T08:10:29.230Z,14.5
2022-09-04T08:15:18.267Z,14.5
2022-09-04T08:20:24.361Z,14.4
2022-09-04T08:25:30.385Z,14.5
2022-09-04T08:30:19.432Z,14.5
2022-09-04T08:35:25.365Z,14.6
2022-09-04T08:40:31.535Z,14.6
2022-09-04T08:45:20.459Z,14.6
2022-09-04T08:50:26.535Z,14.6
2022-09-04T08:55:32.694Z,14.7
2022-09-04T09:00:21.641Z,15.0
2022-09-04T09:05:26.807Z,15.0
2022-09-04T09:10:15.867Z,15.1
2022-09-04T09:15:21.981Z,15.2
2022-09-04T09:20:28.053Z,15.5
2022-09-04T09:25:17.025Z,15.6
2022-09-04T09:30:23.443Z,15.8
2022-09-04T09:35:29.044Z,15.8
2022-09-04T09:40:18.099Z,15.6
2022-09-04T09:45:24.137Z,16.2
2022-09-04T09:50:30.161Z,16.6
2022-09-04T09:55:19.249Z,16.7
2022-09-04T10:00:25.311Z,16.5
2022-09-04T10:05:31.471Z,16.1
2022-09-04T10:10:20.503Z,16.5
2022-09-04T10:15:26.536Z,16.8
2022-09-04T10:20:32.558Z,17.1
2022-09-04T10:25:21.691Z,17.2
2022-09-04T10:30:27.685Z,17.1
2022-09-04T10:35:16.623Z,17.4
2022-09-04T10:40:23.236Z,17.5
2022-09-04T10:45:28.878Z,16.9
2022-09-04T10:50:17.842Z,17.5
2022-09-04T10:55:23.853Z,18.0
2022-09-04T11:00:29.910Z,18.3
2022-09-04T11:05:19.097Z,18.6
2022-09-04T11:10:25.185Z,18.6
2022-09-04T11:15:31.255Z,18.9
2022-09-04T11:20:20.198Z,18.9
2022-09-04T11:25:26.350Z,18.9
2022-09-04T11:30:32.217Z,19.2
2022-09-04T11:35:21.252Z,19.5
2022-09-04T11:40:27.461Z,19.6
2022-09-04T11:45:16.363Z,19.6
2022-09-04T11:50:22.635Z,19.5
2022-09-04T11:55:28.514Z,20.0
2022-09-04T12:00:17.562Z,20.5
2022-09-04T12:05:22.663Z,20.6
2022-09-04T12:10:28.779Z,20.7
2022-09-04T12:15:17.764Z,21.1
2022-09-04T12:20:23.849Z,20.9
2022-09-04T12:25:29.927Z,21.7
2022-09-04T12:30:18.933Z,22.3
2022-09-04T12:35:28.536Z,21.6
2022-09-04T12:40:31.007Z,21.2
2022-09-04T12:45:20.086Z,21.4
2022-09-04T12:50:26.240Z,20.7
2022-09-04T12:55:33.516Z,21.3
2022-09-04T13:00:21.213Z,21.9
2022-09-04T13:05:26.896Z,22.1
2022-09-04T13:10:15.921Z,21.9
2022-09-04T13:15:21.959Z,22.2
2022-09-04T13:20:28.036Z,22.7
2022-09-04T13:25:17.151Z,22.7
2022-09-04T13:30:23.363Z,23.2
2022-09-04T13:35:29.484Z,23.0
2022-09-04T13:40:18.467Z,23.1
2022-09-04T13:45:24.460Z,24.0
2022-09-04T13:50:31.190Z,22.8
2022-09-04T13:55:19.585Z,23.5
2022-09-04T14:00:25.806Z,23.2
2022-09-04T14:05:30.769Z,23.1
2022-09-04T14:10:20.096Z,23.7
2022-09-04T14:15:25.922Z,23.3
2022-09-04T14:20:31.915Z,23.2
2022-09-04T14:25:21.025Z,23.3
2022-09-04T14:30:26.884Z,24.0
2022-09-04T14:35:15.921Z,23.9
2022-09-04T14:40:21.992Z,24.0
2022-09-04T14:45:28.017Z,23.8
2022-09-04T14:50:17.046Z,24.0
2022-09-04T14:55:23.280Z,24.2
2022-09-04T15:00:29.203Z,24.2
2022-09-04T15:05:18.300Z,24.4
2022-09-04T15:10:24.426Z,24.5
2022-09-04T15:15:30.432Z,24.7
2022-09-04T15:20:19.477Z,25.2
2022-09-04T15:25:41.900Z,24.0
2022-09-04T15:30:32.259Z,23.5
2022-09-04T15:35:20.082Z,24.1
2022-09-04T15:40:26.136Z,24.4
2022-09-04T15:45:32.180Z,24.3
2022-09-04T15:50:21.214Z,24.5
2022-09-04T15:55:27.396Z,24.1
2022-09-04T16:00:16.447Z,24.2
2022-09-04T16:05:23.841Z,24.6
2022-09-04T16:10:27.619Z,24.7
2022-09-04T16:15:16.654Z,24.6
2022-09-04T16:20:22.684Z,24.1
2022-09-04T16:25:28.813Z,24.5
2022-09-04T16:30:17.736Z,24.5
2022-09-04T16:35:23.800Z,24.4
2022-09-04T16:40:29.845Z,24.3
2022-09-04T16:45:18.893Z,24.1
2022-09-04T16:50:24.997Z,24.0
2022-09-04T16:55:31.142Z,24.0
2022-09-04T17:00:20.094Z,23.7
2022-09-04T17:05:28.308Z,23.8
2022-09-04T17:10:36.122Z,23.6
2022-09-04T17:15:20.792Z,23.0
2022-09-04T17:20:38.401Z,21.9
2022-09-04T17:26:21.252Z,21.9
2022-09-04T17:29:05.064Z,21.9
2022-09-04T17:29:08.060Z,21.4
2022-09-04T17:29:08.417Z,21.4
2022-09-04T17:29:08.417Z,21.4
2022-09-04T17:30:28.898Z,20.9
2022-09-04T17:40:41.787Z,20.5
2022-09-04T17:40:43.032Z,20.5
2022-09-04T17:40:48.437Z,20.1
2022-09-04T17:40:53.765Z,20.5
2022-09-04T17:45:23.576Z,19.8
2022-09-04T17:50:29.633Z,19.5
2022-09-04T17:55:18.665Z,19.0
2022-09-04T18:00:24.773Z,18.8
2022-09-04T18:05:30.428Z,18.7
2022-09-04T18:10:18.908Z,18.3
2022-09-04T18:15:33.398Z,18.0
2022-09-04T18:20:31.036Z,17.8
2022-09-04T18:25:20.127Z,17.7
2022-09-04T18:34:12.542Z,17.5
2022-09-04T18:37:09.478Z,17.5
2022-09-04T18:37:17.608Z,17.2
2022-09-04T18:37:20.965Z,17.2
2022-09-04T18:37:23.988Z,17.5
2022-09-04T18:37:47.340Z,17.2
2022-09-04T18:40:36.076Z,16.8
2022-09-04T18:44:56.692Z,16.8
2022-09-04T18:50:22.475Z,16.8
2022-09-04T18:50:45.735Z,16.7
2022-09-04T18:50:45.735Z,16.7
2022-09-04T18:50:47.148Z,16.6
2022-09-04T18:50:51.445Z,16.7
2022-09-04T18:55:22.134Z,16.4
2022-09-04T19:00:28.188Z,16.3
2022-09-04T19:05:17.336Z,16.1
2022-09-04T19:10:23.355Z,16.0
2022-09-04T19:15:37.030Z,15.8
2022-09-04T19:20:18.439Z,15.6
2022-09-04T19:25:24.599Z,15.5
2022-09-04T19:30:30.047Z,15.4
2022-09-04T19:35:19.165Z,15.3
2022-09-04T19:45:59.054Z,15.3
2022-09-04T19:46:02.226Z,15.3
2022-09-04T19:46:05.152Z,15.3
2022-09-04T19:46:13.884Z,15.1
2022-09-04T19:53:18.987Z,15.0
2022-09-04T19:53:24.517Z,15.0
2022-09-04T19:53:30.285Z,15.0
2022-09-04T19:55:26.377Z,14.8
2022-09-04T20:00:43.777Z,14.7
2022-09-04T20:05:21.034Z,14.6
2022-09-04T20:10:27.018Z,14.5
2022-09-04T20:15:16.108Z,14.3
2022-09-04T20:20:22.125Z,14.3
2022-09-04T20:25:28.217Z,14.2
2022-09-04T20:30:16.920Z,14.1
2022-09-04T20:35:33.112Z,14.0
2022-09-04T20:40:29.016Z,13.9
2022-09-04T20:46:42.207Z,13.8
2022-09-04T20:52:21.822Z,13.8
2022-09-04T20:52:42.143Z,13.8
2022-09-04T20:52:50.228Z,13.7
2022-09-04T20:52:56.684Z,13.7
2022-09-04T20:52:57.623Z,13.7
2022-09-04T20:55:30.242Z,13.7
2022-09-04T21:03:17.136Z,13.7
2022-09-04T21:03:19.146Z,13.7
2022-09-04T21:03:21.879Z,13.7
2022-09-04T21:05:24.993Z,13.5
2022-09-04T21:10:30.881Z,13.4
2022-09-04T21:15:19.947Z,13.4
2022-09-04T21:20:25.961Z,13.3
2022-09-04T21:25:32.095Z,13.2
2022-09-04T21:30:25.855Z,13.1
2022-09-04T21:35:26.521Z,13.0
2022-09-04T21:40:21.624Z,12.9
2022-09-04T21:45:21.652Z,12.9
2022-09-04T21:50:28.410Z,12.9
2022-09-04T21:56:38.128Z,12.7
2022-09-04T21:59:49.308Z,12.7
2022-09-04T22:02:27.918Z,12.7
2022-09-04T22:02:37.306Z,12.7
2022-09-04T22:02:38.110Z,12.7
2022-09-04T22:05:29.395Z,12.7
2022-09-04T22:13:31.042Z,12.7
2022-09-04T22:13:38.743Z,12.7
2022-09-04T22:13:42.099Z,12.7
2022-09-04T22:15:25.048Z,12.5
2022-09-04T22:20:34.886Z,12.4
2022-09-04T22:25:19.499Z,12.3
2022-09-04T22:30:31.503Z,12.3
2022-09-04T22:35:35.700Z,12.2
2022-09-04T22:40:20.099Z,12.1
2022-09-04T22:45:26.181Z,12.2
2022-09-04T22:50:49.638Z,11.9
2022-09-04T22:55:38.932Z,11.9
2022-09-04T23:00:27.295Z,11.9
2022-09-04T23:05:15.895Z,11.7
2022-09-04T23:13:49.425Z,11.7
2022-09-04T23:13:53.898Z,11.7
2022-09-04T23:14:02.131Z,11.7
2022-09-04T23:15:28.016Z,11.6
2022-09-04T23:26:33.168Z,11.6
2022-09-04T23:26:35.125Z,11.6
2022-09-04T23:26:44.475Z,11.6
2022-09-04T23:26:45.672Z,11.6
2022-09-04T23:26:52.674Z,11.6
2022-09-04T23:30:29.225Z,11.5
2022-09-04T23:35:18.246Z,11.4
2022-09-04T23:40:24.371Z,11.3
2022-09-04T23:45:30.385Z,11.3
2022-09-04T23:50:19.462Z,11.3
2022-09-04T23:55:26.237Z,11.2
